Time;durP1;ratioP1;P1;durP2;ratioP2;P2;SDS_P1;SDS_P2;PMS_P1;PMS_P2;Temp;Humidity;BMP_temperature;BMP_pressure;BME280_temperature;BME280_humidity;BME280_pressure;Samples;Min_cycle;Max_cycle;Signal;HPM_P1;HPM_P2
2021/04/25 00:01:42;;;;;;;0.00;0.00;;;13.50;54.20;;;;;;4157508;28;20081;-45
2021/04/25 00:04:03;;;;;;;0.00;0.00;;;13.50;54.30;;;;;;4157202;28;20053;-46
2021/04/25 00:06:24;;;;;;;0.00;0.00;;;13.50;54.40;;;;;;4157274;28;20073;-49
2021/04/25 00:08:45;;;;;;;0.00;0.00;;;13.50;54.40;;;;;;4158479;28;20522;-46
2021/04/25 00:11:06;;;;;;;0.00;0.00;;;13.50;54.40;;;;;;4160313;28;20045;-45
2021/04/25 00:13:27;;;;;;;;;;;13.50;54.50;;;;;;4161047;28;20041;-47
2021/04/25 00:15:49;;;;;;;0.05;0.05;;;13.40;54.50;;;;;;4159911;28;20330;-46
2021/04/25 00:18:10;;;;;;;;;;;13.50;54.50;;;;;;4161049;28;20092;-46
2021/04/25 00:20:31;;;;;;;0.00;0.00;;;13.40;54.60;;;;;;4160391;28;20396;-47
2021/04/25 00:22:52;;;;;;;0.10;0.10;;;13.40;54.60;;;;;;4160218;28;20496;-48
2021/04/25 00:25:14;;;;;;;0.00;0.00;;;13.50;54.70;;;;;;4145432;28;20042;-48
2021/04/25 00:27:35;;;;;;;0.00;0.00;;;13.50;54.80;;;;;;4144156;28;20463;-49
2021/04/25 00:29:56;;;;;;;0.00;0.00;;;13.40;54.80;;;;;;4143786;28;20493;-48
2021/04/25 00:32:18;;;;;;;0.00;0.00;;;13.40;55.00;;;;;;4143837;28;20093;-48
2021/04/25 00:34:39;;;;;;;0.00;0.00;;;13.40;55.00;;;;;;4157423;28;20053;-46
2021/04/25 00:37:00;;;;;;;0.00;0.00;;;13.40;55.00;;;;;;4159941;28;20419;-48
2021/04/25 00:39:21;;;;;;;0.00;0.00;;;13.50;55.10;;;;;;4160036;28;20137;-45
2021/04/25 00:41:42;;;;;;;0.00;0.00;;;13.40;55.00;;;;;;4159688;28;20084;-46
2021/04/25 00:44:03;;;;;;;0.00;0.00;;;13.40;55.10;;;;;;4159511;28;20480;-48
2021/04/25 00:46:24;;;;;;;0.00;0.00;;;13.40;55.00;;;;;;4159908;28;20061;-50
2021/04/25 00:48:46;;;;;;;0.00;0.00;;;13.40;55.00;;;;;;4160098;28;20492;-48
2021/04/25 00:51:12;;;;;;;0.50;0.50;;;13.40;55.00;;;;;;4159453;28;20152;-46
2021/04/25 00:53:34;;;;;;;0.00;0.00;;;13.40;55.00;;;;;;4159443;28;20037;-48
2021/04/25 00:55:56;;;;;;;0.00;0.00;;;13.40;55.00;;;;;;4159396;28;20041;-51
2021/04/25 00:58:17;;;;;;;0.00;0.00;;;13.40;55.00;;;;;;4159653;28;20057;-47
2021/04/25 01:00:38;;;;;;;0.00;0.00;;;13.40;55.00;;;;;;4159620;28;20061;-48
2021/04/25 01:02:59;;;;;;;0.70;0.32;;;13.40;55.00;;;;;;4159710;28;20061;-49
2021/04/25 01:05:22;;;;;;;0.00;0.00;;;13.40;55.00;;;;;;4159420;28;20049;-51
2021/04/25 01:07:43;;;;;;;0.00;0.00;;;13.40;55.00;;;;;;4159572;28;20071;-45
2021/04/25 01:10:06;;;;;;;0.00;0.00;;;13.30;54.90;;;;;;4159430;28;20049;-48
2021/04/25 01:12:27;;;;;;;0.00;0.00;;;13.30;55.00;;;;;;4159352;28;20046;-49
2021/04/25 01:14:48;;;;;;;0.00;0.00;;;13.30;55.00;;;;;;4159217;28;20064;-50
2021/04/25 01:17:09;;;;;;;0.00;0.00;;;13.30;55.00;;;;;;4159481;28;20482;-48
2021/04/25 01:19:30;;;;;;;0.00;0.00;;;13.30;55.00;;;;;;4143385;28;20046;-45
2021/04/25 01:21:52;;;;;;;0.00;0.00;;;13.30;55.10;;;;;;4143319;28;20053;-48
2021/04/25 01:24:13;;;;;;;7.68;0.77;;;13.30;55.10;;;;;;4142975;28;20188;-47
2021/04/25 01:26:34;;;;;;;0.00;0.00;;;13.30;55.10;;;;;;4126925;28;20054;-45
2021/04/25 01:28:55;;;;;;;0.00;0.00;;;13.30;55.10;;;;;;4142708;28;20492;-50
2021/04/25 01:31:17;;;;;;;0.00;0.00;;;13.30;55.20;;;;;;4143330;28;20412;-45
2021/04/25 01:33:39;;;;;;;0.00;0.00;;;13.30;55.20;;;;;;4154926;28;20142;-45
2021/04/25 01:36:00;;;;;;;0.00;0.00;;;13.30;55.20;;;;;;4158462;28;20644;-45
2021/04/25 01:38:23;;;;;;;0.00;0.00;;;13.30;55.30;;;;;;4159472;28;20084;-45
2021/04/25 01:40:44;;;;;;;0.00;0.00;;;13.20;55.30;;;;;;4159268;28;20053;-44
2021/04/25 01:43:05;;;;;;;0.00;0.00;;;13.30;55.40;;;;;;4143163;28;20381;-49
2021/04/25 01:45:26;;;;;;;0.00;0.00;;;13.20;55.40;;;;;;4142355;28;20050;-45
2021/04/25 01:47:49;;;;;;;0.00;0.00;;;13.20;55.40;;;;;;4154889;28;20459;-46
2021/04/25 01:50:10;;;;;;;0.05;0.03;;;13.20;55.50;;;;;;4159235;28;20057;-45
2021/04/25 01:52:31;;;;;;;0.00;0.00;;;13.20;55.50;;;;;;4159438;28;20502;-47
2021/04/25 01:54:53;;;;;;;0.00;0.00;;;13.20;55.40;;;;;;4158830;28;20038;-45
2021/04/25 01:57:14;;;;;;;3.85;1.33;;;13.20;56.20;;;;;;4142966;28;20413;-45
2021/04/25 01:59:35;;;;;;;0.20;0.17;;;13.20;55.40;;;;;;4158951;28;20056;-45
2021/04/25 02:01:56;;;;;;;0.00;0.00;;;13.20;55.40;;;;;;4158603;28;20446;-47
2021/04/25 02:04:18;;;;;;;0.00;0.00;;;13.20;55.20;;;;;;4158705;28;20049;-46
2021/04/25 02:06:42;;;;;;;0.00;0.00;;;13.20;55.20;;;;;;4142509;28;20129;-48
2021/04/25 02:09:04;;;;;;;0.00;0.00;;;13.20;55.10;;;;;;4127272;28;20070;-47
2021/04/25 02:11:26;;;;;;;0.00;0.00;;;13.20;55.20;;;;;;4142066;28;20057;-44
2021/04/25 02:13:47;;;;;;;0.00;0.00;;;13.10;55.20;;;;;;4141891;28;20050;-46
2021/04/25 02:16:08;;;;;;;0.00;0.00;;;13.10;55.20;;;;;;4150475;28;20081;-47
2021/04/25 02:18:29;;;;;;;0.00;0.00;;;13.20;55.20;;;;;;4158294;28;20048;-46
2021/04/25 02:20:51;;;;;;;0.05;0.05;;;13.10;55.20;;;;;;4158421;28;20048;-48
2021/04/25 02:23:12;;;;;;;0.00;0.00;;;13.10;55.20;;;;;;4158511;28;20045;-46
2021/04/25 02:25:33;;;;;;;0.10;0.10;;;13.10;56.00;;;;;;4158182;28;20108;-45
2021/04/25 02:27:56;;;;;;;0.00;0.00;;;13.20;55.40;;;;;;4141981;28;20508;-47
2021/04/25 02:30:19;;;;;;;0.10;0.10;;;13.10;55.30;;;;;;4141489;28;20049;-46
2021/04/25 02:32:40;;;;;;;0.00;0.00;;;13.10;55.40;;;;;;4141778;28;20527;-45
2021/04/25 02:35:01;;;;;;;0.00;0.00;;;13.10;55.60;;;;;;4146175;28;20103;-46
2021/04/25 02:37:22;;;;;;;0.22;0.22;;;13.10;55.50;;;;;;4158078;28;20422;-47
2021/04/25 02:39:43;;;;;;;0.00;0.00;;;13.10;55.50;;;;;;4157992;28;20049;-45
2021/04/25 02:42:05;;;;;;;0.00;0.00;;;13.10;55.50;;;;;;4158231;28;20080;-46
2021/04/25 02:44:27;;;;;;;0.00;0.00;;;13.10;55.50;;;;;;4157947;28;20780;-46
2021/04/25 02:46:48;;;;;;;0.00;0.00;;;13.10;56.20;;;;;;4142626;28;20045;-45
2021/04/25 02:49:10;;;;;;;0.00;0.00;;;13.10;55.60;;;;;;4157925;28;20045;-45
2021/04/25 02:51:30;;;;;;;0.00;0.00;;;13.10;55.60;;;;;;4158138;28;20052;-46
2021/04/25 02:53:51;;;;;;;0.00;0.00;;;13.10;55.60;;;;;;4157897;28;20133;-47
2021/04/25 02:56:13;;;;;;;;;;;13.10;55.70;;;;;;4157904;28;20462;-44
2021/04/25 02:58:34;;;;;;;0.10;0.10;;;13.10;55.70;;;;;;4157883;28;20332;-48
2021/04/25 03:00:56;;;;;;;0.00;0.00;;;13.00;55.70;;;;;;4157748;28;20045;-51
2021/04/25 03:03:17;;;;;;;8.35;0.68;;;13.00;55.70;;;;;;4157871;28;20104;-45
2021/04/25 03:05:38;;;;;;;0.00;0.00;;;13.00;55.70;;;;;;4157803;28;20048;-44
2021/04/25 03:07:59;;;;;;;0.25;0.25;;;13.00;55.70;;;;;;4157556;28;20456;-48
2021/04/25 03:10:21;;;;;;;0.00;0.00;;;13.00;55.80;;;;;;4157583;28;20495;-46
2021/04/25 03:12:43;;;;;;;0.00;0.00;;;13.10;55.80;;;;;;4157630;28;20060;-45
2021/04/25 03:15:04;;;;;;;0.00;0.00;;;13.00;55.80;;;;;;4157748;28;20073;-45
2021/04/25 03:17:26;;;;;;;0.00;0.00;;;13.10;55.90;;;;;;4156465;28;20053;-45
2021/04/25 03:19:47;;;;;;;0.00;0.00;;;13.00;55.90;;;;;;4140876;28;20158;-47
2021/04/25 03:22:08;;;;;;;0.00;0.00;;;13.00;55.90;;;;;;4141602;28;20054;-45
2021/04/25 03:24:29;;;;;;;0.00;0.00;;;13.00;56.50;;;;;;4145544;28;20096;-45
2021/04/25 03:26:51;;;;;;;0.00;0.00;;;13.00;55.80;;;;;;4157901;28;20566;-44
2021/04/25 03:29:12;;;;;;;;;;;13.00;55.90;;;;;;4157992;28;20162;-45
2021/04/25 03:31:32;;;;;;;0.00;0.00;;;13.00;55.90;;;;;;4157744;28;19929;-46
2021/04/25 03:33:55;;;;;;;0.00;0.00;;;13.00;56.60;;;;;;4157679;28;20458;-50
2021/04/25 03:36:15;;;;;;;0.00;0.00;;;13.00;55.90;;;;;;4143300;28;20531;-45
2021/04/25 03:38:37;;;;;;;0.00;0.00;;;13.00;56.00;;;;;;4157918;28;20049;-47
2021/04/25 03:40:57;;;;;;;0.35;0.35;;;13.00;56.00;;;;;;4157310;28;20543;-45
2021/04/25 03:43:19;;;;;;;0.00;0.00;;;13.00;56.10;;;;;;4159846;28;20115;-45
2021/04/25 03:45:40;;;;;;;0.00;0.00;;;13.00;56.00;;;;;;4161067;28;20099;-45
2021/04/25 03:48:01;;;;;;;0.00;0.00;;;13.00;56.00;;;;;;4160535;28;20488;-45
2021/04/25 03:50:24;;;;;;;;;;;12.90;56.00;;;;;;4160853;28;20048;-46
2021/04/25 03:52:47;;;;;;;0.00;0.00;;;13.00;56.10;;;;;;4161185;28;19944;-45
2021/04/25 03:55:09;;;;;;;0.00;0.00;;;13.00;56.20;;;;;;4160428;28;20053;-46
2021/04/25 03:57:30;;;;;;;0.00;0.00;;;12.90;56.10;;;;;;4160385;28;20057;-45
2021/04/25 03:59:51;;;;;;;0.00;0.00;;;12.90;56.80;;;;;;4160569;28;20044;-44
2021/04/25 04:02:12;;;;;;;0.00;0.00;;;13.00;56.20;;;;;;4160685;28;20056;-46
2021/04/25 04:04:35;;;;;;;0.73;0.73;;;12.90;56.10;;;;;;4160179;28;20060;-45
2021/04/25 04:06:57;;;;;;;0.00;0.00;;;12.90;56.20;;;;;;4160248;28;20041;-44
2021/04/25 04:09:18;;;;;;;4.25;0.63;;;12.90;56.20;;;;;;4144768;28;20056;-46
2021/04/25 04:11:40;;;;;;;0.00;0.00;;;12.90;56.20;;;;;;4160993;28;20116;-46
2021/04/25 04:14:01;;;;;;;0.10;0.10;;;12.90;56.20;;;;;;4160275;28;20551;-44
2021/04/25 04:16:21;;;;;;;0.00;0.00;;;12.90;56.30;;;;;;4160199;28;20041;-44
2021/04/25 04:18:42;;;;;;;0.00;0.00;;;12.90;56.30;;;;;;4160283;28;20407;-45
2021/04/25 04:21:04;;;;;;;0.10;0.10;;;12.90;56.30;;;;;;4145460;28;20042;-45
2021/04/25 04:23:26;;;;;;;;;;;12.90;56.30;;;;;;4160665;28;20054;-46
2021/04/25 04:25:47;;;;;;;;;;;12.90;56.40;;;;;;4160499;28;19921;-45
2021/04/25 04:28:10;;;;;;;0.00;0.00;;;12.90;56.40;;;;;;4160216;28;19971;-44
2021/04/25 04:30:31;;;;;;;0.00;0.00;;;12.90;56.40;;;;;;4160144;28;20072;-45
2021/04/25 04:32:52;;;;;;;0.38;0.38;;;12.90;56.40;;;;;;4159928;28;20049;-46
2021/04/25 04:35:13;;;;;;;0.10;0.10;;;12.90;56.40;;;;;;4159718;28;20056;-45
2021/04/25 04:37:34;;;;;;;0.00;0.00;;;12.90;56.40;;;;;;4160035;28;20156;-45
2021/04/25 04:39:56;;;;;;;0.00;0.00;;;12.90;56.40;;;;;;4159926;28;20057;-45
2021/04/25 04:42:17;;;;;;;0.00;0.00;;;12.80;56.30;;;;;;4159887;28;20049;-44
2021/04/25 04:44:37;;;;;;;0.63;0.63;;;12.80;56.40;;;;;;4159602;28;20065;-45
2021/04/25 04:46:59;;;;;;;0.00;0.00;;;12.80;56.30;;;;;;4160071;28;20042;-50
2021/04/25 04:49:20;;;;;;;;;;;12.80;56.30;;;;;;4160073;28;20064;-48
2021/04/25 04:51:41;;;;;;;0.00;0.00;;;12.90;56.40;;;;;;4159933;28;20008;-45
2021/04/25 04:54:02;;;;;;;;;;;12.90;56.70;;;;;;4159480;28;20061;-47
2021/04/25 04:56:24;;;;;;;0.00;0.00;;;12.80;56.60;;;;;;4159785;28;20028;-46
2021/04/25 04:58:45;;;;;;;0.00;0.00;;;12.80;56.70;;;;;;4159467;28;20650;-50
2021/04/25 05:01:06;;;;;;;0.00;0.00;;;12.80;56.80;;;;;;4159275;28;20052;-49
2021/04/25 05:03:27;;;;;;;0.10;0.10;;;12.80;56.90;;;;;;4159781;28;20491;-47
2021/04/25 05:05:48;;;;;;;0.00;0.00;;;12.80;56.80;;;;;;4155327;28;20487;-48
2021/04/25 05:08:09;;;;;;;0.00;0.00;;;12.80;56.90;;;;;;4159591;28;20049;-49
2021/04/25 05:10:30;;;;;;;0.00;0.00;;;12.80;57.00;;;;;;4159250;28;20045;-48
2021/04/25 05:12:52;;;;;;;0.00;0.00;;;12.80;57.00;;;;;;4159197;28;20420;-46
2021/04/25 05:15:13;;;;;;;0.00;0.00;;;12.80;57.00;;;;;;4159265;28;20045;-45
2021/04/25 05:17:35;;;;;;;0.40;0.40;;;12.80;57.00;;;;;;4144543;28;20046;-46
2021/04/25 05:19:56;;;;;;;0.00;0.00;;;12.90;57.10;;;;;;4159536;28;20542;-50
2021/04/25 05:22:16;;;;;;;0.00;0.00;;;12.90;57.10;;;;;;4159327;28;20057;-45
2021/04/25 05:24:37;;;;;;;0.00;0.00;;;12.80;57.00;;;;;;4159148;28;20042;-46
2021/04/25 05:26:58;;;;;;;0.00;0.00;;;12.90;57.10;;;;;;4159871;28;20049;-45
2021/04/25 05:29:20;;;;;;;0.00;0.00;;;12.80;57.00;;;;;;4159559;28;20045;-45
2021/04/25 05:31:41;;;;;;;0.00;0.00;;;12.80;57.10;;;;;;4159545;28;20371;-45
2021/04/25 05:34:03;;;;;;;;;;;12.80;57.10;;;;;;4159769;28;20500;-48
2021/04/25 05:36:24;;;;;;;0.00;0.00;;;12.80;57.10;;;;;;4171779;28;19971;-48
2021/04/25 05:38:45;;;;;;;0.00;0.00;;;12.90;57.50;;;;;;4158976;28;20133;-48
2021/04/25 05:41:10;;;;;;;0.00;0.00;;;12.90;57.80;;;;;;4158907;28;20038;-49
2021/04/25 05:43:31;;;;;;;0.00;0.00;;;12.90;58.10;;;;;;4158868;28;20093;-45
2021/04/25 05:45:52;;;;;;;0.00;0.00;;;12.90;57.90;;;;;;4143896;28;20050;-45
2021/04/25 05:48:13;;;;;;;0.00;0.00;;;12.90;57.80;;;;;;4158013;28;20496;-45
2021/04/25 05:50:35;;;;;;;0.00;0.00;;;12.90;57.70;;;;;;4158672;28;20049;-44
2021/04/25 05:52:57;;;;;;;0.00;0.00;;;12.90;57.70;;;;;;4158873;28;20041;-47
2021/04/25 05:55:18;;;;;;;0.00;0.00;;;12.90;57.80;;;;;;4158256;28;20455;-46
2021/04/25 05:57:39;;;;;;;0.00;0.00;;;12.90;57.80;;;;;;4158522;28;20053;-45
2021/04/25 06:00:00;;;;;;;0.00;0.00;;;12.90;57.80;;;;;;4158606;28;20057;-45
2021/04/25 06:02:27;;;;;;;0.00;0.00;;;12.80;57.80;;;;;;4157415;28;20053;-45
2021/04/25 06:04:48;;;;;;;0.00;0.00;;;12.80;57.80;;;;;;4143401;28;20048;-45
2021/04/25 06:07:09;;;;;;;0.00;0.00;;;12.90;57.80;;;;;;4140986;28;20502;-45
2021/04/25 06:09:30;;;;;;;0.00;0.00;;;12.90;57.80;;;;;;4142201;28;20054;-44
2021/04/25 06:11:51;;;;;;;0.00;0.00;;;12.80;57.70;;;;;;4142227;28;20107;-48
2021/04/25 06:14:12;;;;;;;0.00;0.00;;;12.90;57.60;;;;;;4158727;28;20057;-44
2021/04/25 06:16:33;;;;;;;0.00;0.00;;;12.80;57.50;;;;;;4158326;28;20060;-47
2021/04/25 06:18:55;;;;;;;;;;;12.80;57.50;;;;;;4143072;28;20056;-45
2021/04/25 06:21:16;;;;;;;0.00;0.00;;;12.90;57.50;;;;;;4142631;28;20372;-47
2021/04/25 06:23:37;;;;;;;0.60;0.57;;;12.80;57.50;;;;;;4158358;28;20487;-46
2021/04/25 06:25:58;;;;;;;0.00;0.00;;;12.80;57.40;;;;;;4158669;28;20095;-47
2021/04/25 06:28:19;;;;;;;0.85;0.85;;;12.80;57.50;;;;;;4157694;28;20567;-46
2021/04/25 06:30:39;;;;;;;0.10;0.10;;;12.80;57.40;;;;;;4157990;28;20048;-46
2021/04/25 06:33:00;;;;;;;0.00;0.00;;;12.80;57.50;;;;;;4157416;28;20049;-48
2021/04/25 06:35:23;;;;;;;1.25;1.17;;;12.80;57.50;;;;;;4158014;28;20045;-49
2021/04/25 06:37:47;;;;;;;0.65;0.65;;;12.80;57.50;;;;;;4157288;28;20045;-47
2021/04/25 06:40:09;;;;;;;0.30;0.30;;;12.80;57.50;;;;;;4157409;28;20496;-48
2021/04/25 06:42:31;;;;;;;0.00;0.00;;;12.80;57.50;;;;;;4157731;28;20054;-47
2021/04/25 06:45:01;;;;;;;0.20;0.20;;;12.80;58.70;;;;;;4157839;28;20083;-47
2021/04/25 06:47:22;;;;;;;14.95;0.63;;;12.80;57.90;;;;;;4159258;28;20116;-45
2021/04/25 06:49:44;;;;;;;0.00;0.00;;;12.80;58.40;;;;;;4165548;28;20044;-45
2021/04/25 06:52:06;;;;;;;0.00;0.00;;;12.80;57.50;;;;;;4151403;28;20056;-45
2021/04/25 06:54:27;;;;;;;0.00;0.00;;;12.80;57.40;;;;;;4157830;28;20451;-46
2021/04/25 06:56:48;;;;;;;0.00;0.00;;;12.80;57.50;;;;;;4164035;28;20492;-44
2021/04/25 06:59:10;;;;;;;0.00;0.00;;;12.80;57.60;;;;;;4157896;28;20507;-44
2021/04/25 07:01:31;;;;;;;0.00;0.00;;;12.80;57.50;;;;;;4158042;28;20057;-44
2021/04/25 07:03:53;;;;;;;0.00;0.00;;;12.80;57.50;;;;;;4158397;28;20065;-48
2021/04/25 07:06:14;;;;;;;0.20;0.20;;;12.80;57.60;;;;;;4162391;28;20049;-44
2021/04/25 07:08:36;;;;;;;0.00;0.00;;;12.80;58.30;;;;;;4157567;28;20053;-44
2021/04/25 07:10:57;;;;;;;0.00;0.00;;;12.80;57.30;;;;;;4157553;28;20060;-45
2021/04/25 07:13:18;;;;;;;0.00;0.00;;;12.80;57.20;;;;;;4157808;28;20053;-46
2021/04/25 07:15:39;;;;;;;0.00;0.00;;;12.80;57.20;;;;;;4157468;28;20046;-47
2021/04/25 07:18:00;;;;;;;0.00;0.00;;;12.80;57.00;;;;;;4156578;28;20503;-47
2021/04/25 07:20:21;;;;;;;0.00;0.00;;;12.80;57.10;;;;;;4156972;28;20107;-44
2021/04/25 07:22:42;;;;;;;0.55;0.55;;;12.80;56.90;;;;;;4143344;28;20073;-44
2021/04/25 07:25:05;;;;;;;0.00;0.00;;;12.80;56.80;;;;;;4157711;28;20476;-47
2021/04/25 07:27:27;;;;;;;0.00;0.00;;;12.80;56.80;;;;;;4158005;28;20404;-46
2021/04/25 07:29:48;;;;;;;0.00;0.00;;;12.90;56.60;;;;;;4141116;28;20037;-46
2021/04/25 07:32:09;;;;;;;0.00;0.00;;;12.90;56.20;;;;;;4142132;28;20047;-45
2021/04/25 07:34:30;;;;;;;0.00;0.00;;;12.80;55.90;;;;;;4155206;28;20049;-45
2021/04/25 07:36:51;;;;;;;0.00;0.00;;;12.80;56.10;;;;;;4156870;28;20049;-45
2021/04/25 07:39:13;;;;;;;0.20;0.20;;;12.90;56.20;;;;;;4157304;28;20400;-45
2021/04/25 07:41:35;;;;;;;0.05;0.05;;;12.90;55.90;;;;;;4156708;28;20045;-46
2021/04/25 07:43:57;;;;;;;0.00;0.00;;;12.80;55.80;;;;;;4157066;28;20107;-47
2021/04/25 07:46:19;;;;;;;0.00;0.00;;;12.80;56.00;;;;;;4140929;28;20219;-47
2021/04/25 07:48:40;;;;;;;0.00;0.00;;;12.80;55.90;;;;;;4145234;28;20048;-45
2021/04/25 07:51:01;;;;;;;0.00;0.00;;;12.80;55.90;;;;;;4157231;28;20049;-45
2021/04/25 07:53:25;;;;;;;0.00;0.00;;;12.90;55.90;;;;;;4144132;28;20849;-44
2021/04/25 07:55:46;;;;;;;0.00;0.00;;;12.80;55.70;;;;;;4163768;28;20479;-48
2021/04/25 07:58:08;;;;;;;0.00;0.00;;;12.90;55.90;;;;;;4161307;28;20042;-45
2021/04/25 08:00:29;;;;;;;0.00;0.00;;;12.80;55.80;;;;;;4156687;28;20061;-45
2021/04/25 08:02:50;;;;;;;7.80;0.80;;;12.90;55.60;;;;;;4157191;28;20049;-44
2021/04/25 08:05:12;;;;;;;0.00;0.00;;;12.80;55.50;;;;;;4157136;28;20053;-44
2021/04/25 08:07:33;;;;;;;1.27;1.20;;;12.90;55.50;;;;;;4156478;28;20049;-47
2021/04/25 08:09:55;;;;;;;0.00;0.00;;;12.80;56.10;;;;;;4155918;28;20115;-45
2021/04/25 08:12:16;;;;;;;0.00;0.00;;;12.80;55.50;;;;;;4157112;28;20049;-47
2021/04/25 08:14:38;;;;;;;0.00;0.00;;;12.80;55.60;;;;;;4156717;28;20053;-47
2021/04/25 08:16:59;;;;;;;0.00;0.00;;;12.80;56.20;;;;;;4155722;28;20427;-50
2021/04/25 08:19:20;;;;;;;0.55;0.28;;;12.80;55.30;;;;;;4157397;28;20061;-52
2021/04/25 08:21:42;;;;;;;0.00;0.00;;;12.80;55.30;;;;;;4156381;28;20077;-50
2021/04/25 08:24:03;;;;;;;0.00;0.00;;;12.80;55.60;;;;;;4156608;28;20069;-44
2021/04/25 08:26:24;;;;;;;0.05;0.05;;;12.80;56.80;;;;;;4140787;28;20594;-46
2021/04/25 08:28:45;;;;;;;5.38;2.33;;;12.80;57.60;;;;;;4152932;28;20061;-45
2021/04/25 08:31:08;;;;;;;0.10;0.10;;;12.80;58.00;;;;;;4159456;28;20103;-47
2021/04/25 08:33:29;;;;;;;0.00;0.00;;;12.80;58.40;;;;;;4143229;28;20046;-45
2021/04/25 08:35:50;;;;;;;0.20;0.20;;;12.80;58.70;;;;;;4149994;28;20049;-48
2021/04/25 08:38:11;;;;;;;0.00;0.00;;;12.80;58.90;;;;;;4158581;28;20049;-44
2021/04/25 08:40:32;;;;;;;0.43;0.43;;;12.80;58.80;;;;;;4159105;28;20037;-47
2021/04/25 08:42:54;;;;;;;0.00;0.00;;;12.80;58.60;;;;;;4159898;28;20049;-47
2021/04/25 08:45:16;;;;;;;0.00;0.00;;;12.80;58.50;;;;;;4159441;28;20416;-46
2021/04/25 08:47:47;;;;;;;0.00;0.00;;;12.80;58.50;;;;;;4159060;28;20045;-45
2021/04/25 08:50:09;;;;;;;2.78;1.95;;;12.80;58.40;;;;;;4158652;28;20500;-45
2021/04/25 08:52:31;;;;;;;2.60;1.90;;;12.80;57.90;;;;;;4159294;28;20053;-45
2021/04/25 08:54:52;;;;;;;0.77;0.68;;;12.80;57.60;;;;;;4159036;28;20056;-44
2021/04/25 08:57:28;;;;;;;0.00;0.00;;;12.80;57.20;;;;;;4159005;28;20138;-46
2021/04/25 08:59:53;;;;;;;0.20;0.20;;;12.80;57.00;;;;;;4159889;28;20129;-45
2021/04/25 09:02:14;;;;;;;0.00;0.00;;;12.80;56.80;;;;;;4159876;28;20056;-44
2021/04/25 09:04:36;;;;;;;0.52;0.52;;;12.80;56.80;;;;;;4159041;28;20049;-47
2021/04/25 09:06:59;;;;;;;0.00;0.00;;;12.80;56.60;;;;;;4158592;28;20119;-45
2021/04/25 09:09:20;;;;;;;1.00;1.00;;;12.80;56.50;;;;;;4159442;28;20051;-50
2021/04/25 09:11:42;;;;;;;0.00;0.00;;;12.80;56.50;;;;;;4159318;28;20049;-48
2021/04/25 09:14:21;;;;;;;0.03;0.03;;;12.80;56.40;;;;;;4159480;28;20053;-45
2021/04/25 09:16:44;;;;;;;0.00;0.00;;;12.80;56.40;;;;;;4145613;28;20053;-45
2021/04/25 09:19:06;;;;;;;0.00;0.00;;;12.80;56.20;;;;;;4142742;28;20523;-47
2021/04/25 09:21:27;;;;;;;0.00;0.00;;;12.90;56.20;;;;;;4150162;28;20059;-45
2021/04/25 09:23:48;;;;;;;0.00;0.00;;;12.80;56.20;;;;;;4159081;28;20049;-45
2021/04/25 09:26:10;;;;;;;0.00;0.00;;;12.80;56.20;;;;;;4159074;28;20053;-48
2021/04/25 09:28:32;;;;;;;0.75;0.38;;;12.90;56.80;;;;;;4158997;28;20055;-47
2021/04/25 09:30:57;;;;;;;;;;;13.00;55.50;;;;;;4159547;28;20046;-47
2021/04/25 09:33:18;;;;;;;0.00;0.00;;;13.80;53.90;;;;;;4159296;28;19925;-44
2021/04/25 09:35:39;;;;;;;0.00;0.00;;;15.00;51.00;;;;;;4155702;28;20042;-42
2021/04/25 09:38:10;;;;;;;0.10;0.10;;;16.10;48.90;;;;;;4157033;28;20488;-43
2021/04/25 09:40:40;;;;;;;0.20;0.20;;;17.20;46.50;;;;;;4152385;28;20100;-48
2021/04/25 09:43:03;;;;;;;0.10;0.10;;;18.40;44.10;;;;;;4151343;28;20103;-44
2021/04/25 09:45:26;;;;;;;0.38;0.38;;;19.50;41.50;;;;;;4158975;28;20768;-43
2021/04/25 09:47:47;;;;;;;1.05;0.73;;;20.60;39.20;;;;;;4158648;28;20132;-46
2021/04/25 09:50:18;;;;;;;0.43;0.43;;;21.50;37.10;;;;;;4159012;28;20068;-47
2021/04/25 09:52:39;;;;;;;0.00;0.00;;;22.30;35.60;;;;;;4132517;28;20116;-51
2021/04/25 09:55:13;;;;;;;;;;;22.80;34.50;;;;;;4142643;28;20073;-45
2021/04/25 09:57:39;;;;;;;0.00;0.00;;;23.00;34.10;;;;;;4132908;28;19976;-45
2021/04/25 10:00:00;;;;;;;2.58;0.63;;;22.80;34.30;;;;;;4151982;28;20423;-45
2021/04/25 10:02:21;;;;;;;0.22;0.15;;;22.50;35.10;;;;;;4158523;28;20045;-45
2021/04/25 10:04:42;;;;;;;0.00;0.00;;;22.00;35.80;;;;;;4157801;28;20056;-44
2021/04/25 10:07:04;;;;;;;1.67;0.98;;;21.50;36.70;;;;;;4142195;28;20092;-45
2021/04/25 10:09:25;;;;;;;1.65;0.40;;;21.10;37.60;;;;;;4141890;28;20042;-44
2021/04/25 10:11:48;;;;;;;3.55;1.67;;;20.70;38.60;;;;;;4141773;28;20120;-48
2021/04/25 10:14:11;;;;;;;0.60;0.60;;;20.20;39.70;;;;;;4142397;28;20156;-47
2021/04/25 10:16:32;;;;;;;0.00;0.00;;;19.80;40.60;;;;;;4168831;28;20045;-45
2021/04/25 10:18:54;;;;;;;0.77;0.35;;;19.40;41.40;;;;;;4144308;28;20050;-43
2021/04/25 10:21:17;;;;;;;0.28;0.28;;;19.00;41.90;;;;;;4157324;28;20057;-45
2021/04/25 10:23:38;;;;;;;0.00;0.00;;;18.70;42.60;;;;;;4155970;28;20156;-45
2021/04/25 10:26:00;;;;;;;0.05;0.05;;;18.50;43.60;;;;;;4158409;28;20045;-44
2021/04/25 10:28:31;;;;;;;0.00;0.00;;;18.40;44.00;;;;;;4157737;28;20057;-47
2021/04/25 10:30:59;;;;;;;0.00;0.00;;;18.30;45.00;;;;;;4157324;28;20049;-44
2021/04/25 10:33:20;;;;;;;0.03;0.03;;;18.30;44.40;;;;;;4157481;28;20131;-43
2021/04/25 10:35:54;;;;;;;17.67;1.17;;;18.30;44.50;;;;;;4158125;28;20158;-45
2021/04/25 10:38:34;;;;;;;0.00;0.00;;;18.40;44.50;;;;;;4142689;28;20096;-43
2021/04/25 10:41:22;;;;;;;1.42;1.33;;;18.70;44.00;;;;;;4157969;28;20049;-47
2021/04/25 10:43:56;;;;;;;0.43;0.43;;;18.90;43.60;;;;;;4155550;28;20703;-46
2021/04/25 10:46:18;;;;;;;0.57;0.57;;;18.80;43.40;;;;;;4142755;28;20052;-46
2021/04/25 10:48:39;;;;;;;2.35;2.10;;;18.70;43.90;;;;;;4158182;28;20056;-43
2021/04/25 10:51:20;;;;;;;0.47;0.47;;;18.60;44.20;;;;;;4157064;28;20065;-43
2021/04/25 10:53:43;;;;;;;1.35;1.35;;;18.50;44.40;;;;;;4155264;28;20084;-46
2021/04/25 10:56:33;;;;;;;0.63;0.63;;;18.50;44.20;;;;;;4167220;28;20047;-45
2021/04/25 10:59:29;;;;;;;1.17;1.17;;;18.40;43.80;;;;;;4163968;28;20051;-44
2021/04/25 11:01:50;;;;;;;0.40;0.40;;;18.20;43.90;;;;;;4157802;28;20527;-43
2021/04/25 11:04:12;;;;;;;0.75;0.75;;;18.10;44.20;;;;;;4149597;28;20156;-43
2021/04/25 11:06:34;;;;;;;0.00;0.00;;;17.90;44.80;;;;;;4157832;28;20218;-43
2021/04/25 11:08:55;;;;;;;;;;;17.80;45.30;;;;;;4158001;28;20056;-44
2021/04/25 11:11:29;;;;;;;;;;;17.70;45.30;;;;;;4157943;28;19956;-45
2021/04/25 11:13:50;;;;;;;0.15;0.10;;;17.80;45.60;;;;;;4156599;28;20330;-45
2021/04/25 11:16:27;;;;;;;0.20;0.20;;;18.10;45.20;;;;;;4140727;28;20049;-44
2021/04/25 11:18:51;;;;;;;0.65;0.65;;;18.20;44.70;;;;;;4125422;28;20046;-42
2021/04/25 11:21:41;;;;;;;0.13;0.13;;;18.20;44.70;;;;;;4136693;28;20448;-45
2021/04/25 11:24:33;;;;;;;0.00;0.00;;;18.00;44.30;;;;;;4141303;28;20045;-47
2021/04/25 11:26:55;;;;;;;;;;;17.90;44.80;;;;;;4150181;28;20060;-44
2021/04/25 11:29:19;;;;;;;0.35;0.35;;;18.00;44.80;;;;;;4141449;28;19965;-45
2021/04/25 11:31:50;;;;;;;0.32;0.25;;;18.10;44.30;;;;;;4141529;28;20419;-46
2021/04/25 11:34:50;;;;;;;0.00;0.00;;;18.30;43.50;;;;;;4141143;28;20428;-44
2021/04/25 11:37:23;;;;;;;1.45;0.65;;;18.50;43.40;;;;;;4140538;28;20050;-44
2021/04/25 11:39:46;;;;;;;4.95;1.20;;;18.50;43.90;;;;;;4149944;28;20077;-48
2021/04/25 11:42:08;;;;;;;0.00;0.00;;;18.50;43.40;;;;;;4157401;28;20045;-45
2021/04/25 11:44:32;;;;;;;1.75;0.55;;;18.50;43.10;;;;;;4157393;28;20052;-44
2021/04/25 11:46:55;;;;;;;2.60;1.40;;;18.50;43.40;;;;;;4150423;28;20073;-47
2021/04/25 11:49:16;;;;;;;0.00;0.00;;;18.60;43.30;;;;;;4157631;28;20049;-44
2021/04/25 11:51:37;;;;;;;0.10;0.10;;;18.50;43.20;;;;;;4157479;28;20574;-48
2021/04/25 11:53:58;;;;;;;0.00;0.00;;;18.40;43.80;;;;;;4157556;28;20523;-46
2021/04/25 11:56:28;;;;;;;0.00;0.00;;;18.30;44.10;;;;;;4168399;28;20056;-46
2021/04/25 11:58:49;;;;;;;0.20;0.20;;;18.20;44.30;;;;;;4154952;28;20057;-45
2021/04/25 12:01:21;;;;;;;0.10;0.10;;;18.10;44.60;;;;;;4157529;28;20128;-45
2021/04/25 12:03:48;;;;;;;0.00;0.00;;;18.00;45.00;;;;;;4157468;28;20057;-44
2021/04/25 12:06:09;;;;;;;0.00;0.00;;;17.90;44.60;;;;;;4159287;28;20075;-46
2021/04/25 12:08:30;;;;;;;0.00;0.00;;;17.80;43.30;;;;;;4145242;28;20408;-46
2021/04/25 12:10:53;;;;;;;0.15;0.15;;;17.80;43.50;;;;;;4156733;28;20099;-45
2021/04/25 12:13:16;;;;;;;0.00;0.00;;;17.80;44.30;;;;;;4176797;28;20085;-44
2021/04/25 12:15:51;;;;;;;0.22;0.22;;;17.80;44.80;;;;;;4159912;28;20053;-44
2021/04/25 12:18:25;;;;;;;0.35;0.35;;;17.80;44.70;;;;;;4143340;28;20104;-44
2021/04/25 12:20:49;;;;;;;0.00;0.00;;;18.00;44.70;;;;;;4155167;28;20046;-44
2021/04/25 12:23:15;;;;;;;0.10;0.10;;;18.20;44.40;;;;;;4160570;28;20072;-44
2021/04/25 12:25:36;;;;;;;0.00;0.00;;;18.30;43.70;;;;;;4160779;28;20046;-46
2021/04/25 12:27:58;;;;;;;0.00;0.00;;;18.50;43.10;;;;;;4160475;28;20069;-45